Friday, January 18, 2019, 2:36 AM EST
Back to Local

KHFD, Hartford-brainard Airport

Location: Hartford, CT, United States Lat: 41.733
Local Time: 2:36 AM EST ( 7:36 GMT) Lon: -72.65
Time Zone: US/Eastern Elev: 19 ft

Show me the last for .
Show Decoded

2019-01-18 01:53 METAR KHFD 180653Z AUTO 00000KT 10SM OVC036 M02/M13 A3024 RMK AO2 SLP238
                 T10221133 =
2019-01-18 00:53 METAR KHFD 180553Z AUTO 00000KT 10SM OVC033 M03/M12 A3025 RMK AO2 SLP242
                 T10331122 11028 21039 58021 =
2019-01-17 23:53 METAR KHFD 180453Z 00000KT 10SM OVC100 M03/M14 A3027 RMK AO2 SLP250 T10281139
                 410171067 =
2019-01-17 22:53 METAR KHFD 180353Z 11003KT 10SM OVC100 M03/M14 A3029 RMK AO2 SLP258 T10331139 =
2019-01-17 21:53 METAR KHFD 180253Z 00000KT 10SM BKN120 M03/M16 A3031 RMK AO2 SLP264 T10331156
                 56008 =
2019-01-17 20:53 METAR KHFD 180153Z 00000KT 10SM BKN110 M03/M15 A3031 RMK AO2 SLP264 T10331150 =
2019-01-17 19:53 METAR KHFD 180053Z 17003KT 10SM SCT120 M03/M17 A3033 RMK AO2 SLP269 T10331167 =
2019-01-17 18:53 METAR KHFD 172353Z 14003KT 10SM FEW120 M03/M17 A3033 RMK AO2 SLP272 T10281172
                 11017 21033 55000 =
2019-01-17 17:53 METAR KHFD 172253Z 00000KT 10SM FEW120 M03/M15 A3033 RMK AO2 SLP270 T10331150 =
2019-01-17 16:53 METAR KHFD 172153Z 00000KT 10SM CLR M03/M20 A3031 RMK AO2 SLP264 T10281200 =
2019-01-17 15:53 METAR KHFD 172053Z 15003KT 10SM CLR M02/M22 A3034 RMK AO2 SLP272 T10221217 56015
                 =
2019-01-17 14:53 METAR KHFD 171953Z 18003KT 10SM CLR M02/M22 A3035 RMK AO2 SLP275 T10221217 =
2019-01-17 13:53 METAR KHFD 171853Z 00000KT 10SM CLR M02/M21 A3035 RMK AO2 SLP277 T10221211 =
2019-01-17 12:53 METAR KHFD 171753Z 05003KT 10SM CLR M03/M21 A3038 RMK AO2 SLP287 T10281211 11028
                 21067 58020 =
2019-01-17 11:53 METAR KHFD 171653Z 00000KT 10SM CLR M03/M21 A3040 RMK AO2 SLP294 T10331211 =
2019-01-17 10:53 METAR KHFD 171553Z VRB05KT 10SM CLR M04/M21 A3044 RMK AO2 SLP306 T10441211 =
2019-01-17 09:53 METAR KHFD 171453Z 35007KT 10SM CLR M05/M21 A3044 RMK AO2 SLP307 T10501211 51020
                 =
2019-01-17 08:53 METAR KHFD 171353Z 35005KT 10SM CLR M06/M21 A3043 RMK AO2 SLP303 T10561206 =
2019-01-17 07:53 METAR KHFD 171253Z 34006KT 10SM CLR M06/M21 A3040 RMK AO2 SLP295 T10611211 =
2019-01-17 06:53 METAR KHFD 171153Z 36007KT 10SM CLR M06/M19 A3038 RMK AO2 SLP287 T10611189 11022
                 21061 53020 =
2019-01-17 05:53 METAR KHFD 171053Z 35007KT 10SM CLR M06/M17 A3035 RMK AO2 SLP276 T10611167 =
2019-01-17 04:53 METAR KHFD 170953Z AUTO 35012G16KT 10SM CLR M06/M16 A3033 RMK AO2 SLP270
                 T10561156 =
2019-01-17 03:53 METAR KHFD 170853Z AUTO 34010G17KT 10SM CLR M04/M15 A3032 RMK AO2 SLP267
                 T10441150 51030 =
2019-01-17 02:53 METAR KHFD 170753Z AUTO 34014G19KT 10SM CLR M04/M12 A3029 RMK AO2 SLP258
                 T10391122 =

Support USWX by starting your Amazon purchase here.